createdAt,value
2023-05-16T00:02:44.512Z,102403.22
2023-05-16T00:05:31.628Z,102399.72
2023-05-16T00:08:18.614Z,102404.06
2023-05-16T00:11:05.446Z,102398.03
2023-05-16T00:13:52.304Z,102403.22
2023-05-16T00:16:39.142Z,102395.53
2023-05-16T00:19:26.025Z,102386.91
2023-05-16T00:22:12.967Z,102384.38
2023-05-16T00:24:59.810Z,102386.16
2023-05-16T00:27:46.648Z,102384.47
2023-05-16T00:30:33.534Z,102381.91
2023-05-16T00:33:20.343Z,102381.91
2023-05-16T00:36:07.506Z,102375.06
2023-05-16T00:38:54.317Z,102375.94
2023-05-16T00:41:41.304Z,102372.47
2023-05-16T00:44:28.093Z,102379.41
2023-05-16T00:47:14.892Z,102369.88
2023-05-16T00:50:01.923Z,102379.50
2023-05-16T00:52:48.937Z,102378.63
2023-05-16T00:55:35.802Z,102374.31
2023-05-16T00:58:23.093Z,102363.94
2023-05-16T01:01:10.160Z,102367.31
2023-05-16T01:03:57.794Z,102366.50
2023-05-16T01:06:46.036Z,102371.59
2023-05-16T01:09:32.986Z,102377.66
2023-05-16T01:12:38.507Z,102368.03
2023-05-16T01:15:32.599Z,102372.38
2023-05-16T01:18:29.479Z,102360.09
2023-05-16T01:21:38.749Z,102368.03
2023-05-16T01:24:48.900Z,102373.16
2023-05-16T01:27:38.220Z,102376.69
2023-05-16T01:30:25.691Z,102367.97
2023-05-16T01:33:12.610Z,102366.22
2023-05-16T01:36:21.883Z,102355.63
2023-05-16T01:39:47.412Z,102365.16
2023-05-16T01:42:39.447Z,102371.09
2023-05-16T01:45:31.765Z,102358.66
2023-05-16T01:48:30.484Z,102366.31
2023-05-16T01:51:21.355Z,102369.63
2023-05-16T01:54:12.213Z,102348.47
2023-05-16T01:57:00.518Z,102365.69
2023-05-16T01:59:47.521Z,102368.09
2023-05-16T02:02:34.383Z,102363.59
2023-05-16T02:05:21.309Z,102361.72
2023-05-16T02:08:08.687Z,102357.09
2023-05-16T02:10:55.485Z,102356.06
2023-05-16T02:13:42.319Z,102352.47
2023-05-16T02:16:30.593Z,102362.63
2023-05-16T02:19:18.919Z,102366.75
2023-05-16T02:22:05.830Z,102358.75
2023-05-16T02:24:53.602Z,102357.66
2023-05-16T02:27:40.399Z,102353.19
2023-05-16T02:30:27.197Z,102355.59
2023-05-16T02:33:14.027Z,102357.22
2023-05-16T02:36:00.865Z,102356.19
2023-05-16T02:38:47.709Z,102353.44
2023-05-16T02:41:34.529Z,102355.03
2023-05-16T02:44:21.326Z,102359.19
2023-05-16T02:47:08.107Z,102363.41
2023-05-16T02:49:54.954Z,102358.94
2023-05-16T02:52:41.740Z,102364.09
2023-05-16T02:55:29.078Z,102361.41
2023-05-16T02:58:17.019Z,102359.56
2023-05-16T03:01:04.000Z,102348.22
2023-05-16T03:03:52.174Z,102359.38
2023-05-16T03:06:39.096Z,102353.25
2023-05-16T03:09:25.897Z,102356.53
2023-05-16T03:12:12.703Z,102362.47
2023-05-16T03:14:59.534Z,102357.19
2023-05-16T03:17:46.412Z,102351.91
2023-05-16T03:20:33.383Z,102356.09
2023-05-16T03:23:20.961Z,102347.31
2023-05-16T03:26:07.816Z,102349.75
2023-05-16T03:28:54.583Z,102347.88
2023-05-16T03:31:41.426Z,102342.63
2023-05-16T03:34:28.298Z,102340.78
2023-05-16T03:37:15.169Z,102352.66
2023-05-16T03:40:02.147Z,102344.84
2023-05-16T03:42:49.527Z,102348.16
2023-05-16T03:45:36.398Z,102349.75
2023-05-16T03:48:23.346Z,102352.25
2023-05-16T03:51:10.150Z,102355.59
2023-05-16T03:53:56.979Z,102351.91
2023-05-16T03:56:43.772Z,102359.66
2023-05-16T03:59:30.577Z,102353.53
2023-05-16T04:02:18.878Z,102356.00
2023-05-16T04:05:08.395Z,102356.81
2023-05-16T04:07:55.198Z,102370.47
2023-05-16T04:10:41.984Z,102360.06
2023-05-16T04:13:28.808Z,102372.91
2023-05-16T04:16:15.696Z,102377.09
2023-05-16T04:19:02.575Z,102379.63
2023-05-16T04:21:49.593Z,102385.53
2023-05-16T04:24:36.375Z,102393.28
2023-05-16T04:27:23.194Z,102387.22
2023-05-16T04:30:10.821Z,102385.53
2023-05-16T04:32:57.653Z,102387.25
2023-05-16T04:35:44.563Z,102380.28
2023-05-16T04:38:31.846Z,102385.53
2023-05-16T04:41:18.641Z,102387.31
2023-05-16T04:44:05.557Z,102389.06
2023-05-16T04:46:53.005Z,102387.44
2023-05-16T04:49:40.063Z,102396.06
2023-05-16T04:52:26.851Z,102403.88
2023-05-16T04:55:13.668Z,102391.94
2023-05-16T04:58:00.529Z,102395.47
2023-05-16T05:00:47.349Z,102395.63
2023-05-16T05:03:34.163Z,102398.25
2023-05-16T05:06:21.088Z,102398.38
2023-05-16T05:09:07.891Z,102393.22
2023-05-16T05:11:54.686Z,102395.81
2023-05-16T05:14:41.480Z,102396.75
2023-05-16T05:17:28.408Z,102398.59
2023-05-16T05:20:15.395Z,102402.97
2023-05-16T05:23:02.261Z,102396.16
2023-05-16T05:25:49.669Z,102406.56
2023-05-16T05:28:36.442Z,102409.28
2023-05-16T05:31:23.354Z,102405.94
2023-05-16T05:34:10.154Z,102405.19
2023-05-16T05:36:56.984Z,102416.44
2023-05-16T05:39:43.834Z,102412.25
2023-05-16T05:42:30.614Z,102413.22
2023-05-16T05:45:17.525Z,102411.59
2023-05-16T05:48:04.516Z,102422.94
2023-05-16T05:50:51.390Z,102429.13
2023-05-16T05:53:38.255Z,102423.31
2023-05-16T05:56:25.107Z,102432.06
2023-05-16T05:59:11.853Z,102433.97
2023-05-16T06:01:58.699Z,102433.34
2023-05-16T06:04:45.543Z,102435.31
2023-05-16T06:07:32.382Z,102433.81
2023-05-16T06:10:19.174Z,102432.34
2023-05-16T06:13:06.167Z,102426.38
2023-05-16T06:15:53.548Z,102436.31
2023-05-16T06:18:40.392Z,102443.44
2023-05-16T06:21:27.205Z,102438.47
2023-05-16T06:24:14.081Z,102453.41
2023-05-16T06:27:00.915Z,102437.91
2023-05-16T06:29:47.777Z,102458.22
2023-05-16T06:32:34.573Z,102460.19
2023-05-16T06:35:21.624Z,102457.75
2023-05-16T06:38:08.412Z,102458.88
2023-05-16T06:40:55.217Z,102459.09
2023-05-16T06:43:42.059Z,102462.78
2023-05-16T06:46:28.993Z,102463.88
2023-05-16T06:49:15.818Z,102464.94
2023-05-16T06:52:02.820Z,102469.50
2023-05-16T06:54:49.687Z,102470.59
2023-05-16T06:57:36.513Z,102472.53
2023-05-16T07:00:23.460Z,102464.09
2023-05-16T07:03:10.388Z,102461.72
2023-05-16T07:05:57.313Z,102462.78
2023-05-16T07:08:44.123Z,102469.88
2023-05-16T07:11:30.955Z,102464.84
2023-05-16T07:14:17.805Z,102483.16
2023-05-16T07:17:04.806Z,102472.09
2023-05-16T07:19:51.733Z,102480.97
2023-05-16T07:22:38.671Z,102478.59
2023-05-16T07:25:26.011Z,102482.31
2023-05-16T07:28:13.040Z,102479.06
2023-05-16T07:30:59.860Z,102487.91
2023-05-16T07:33:46.666Z,102485.47
2023-05-16T07:36:34.529Z,102486.56
2023-05-16T07:39:21.405Z,102490.31
2023-05-16T07:42:09.055Z,102488.78
2023-05-16T07:44:55.861Z,102489.91
2023-05-16T07:47:42.753Z,102492.78
2023-05-16T07:50:29.676Z,102491.28
2023-05-16T07:53:16.527Z,102501.03
2023-05-16T07:56:03.642Z,102490.84
2023-05-16T07:58:50.552Z,102487.59
2023-05-16T08:01:37.533Z,102485.28
2023-05-16T08:04:24.406Z,102489.03
2023-05-16T08:07:11.382Z,102485.81
2023-05-16T08:09:58.168Z,102487.78
2023-05-16T08:12:45.025Z,102491.53
2023-05-16T08:15:31.948Z,102487.34
2023-05-16T08:18:20.722Z,102477.97
2023-05-16T08:21:08.986Z,102488.50
2023-05-16T08:23:55.779Z,102492.84
2023-05-16T08:26:42.584Z,102489.41
2023-05-16T08:29:29.403Z,102490.41
2023-05-16T08:32:16.281Z,102493.13
2023-05-16T08:35:03.316Z,102494.97
2023-05-16T08:37:50.147Z,102489.00
2023-05-16T08:40:36.961Z,102480.41
2023-05-16T08:43:23.854Z,102483.19
2023-05-16T08:46:10.768Z,102478.09
2023-05-16T08:49:00.088Z,102478.16
2023-05-16T08:51:48.243Z,102475.59
2023-05-16T08:54:36.086Z,102476.56
2023-05-16T08:57:23.365Z,102474.03
2023-05-16T09:00:10.793Z,102474.13
2023-05-16T09:02:57.939Z,102481.19
2023-05-16T09:05:45.024Z,102490.78
2023-05-16T09:08:32.326Z,102482.97
2023-05-16T09:11:19.506Z,102477.75
2023-05-16T09:14:06.378Z,102476.94
2023-05-16T09:17:08.565Z,102471.78
2023-05-16T09:19:56.516Z,102490.13
2023-05-16T09:22:53.748Z,102487.53
2023-05-16T09:25:40.789Z,102493.66
2023-05-16T09:28:27.677Z,102486.72
2023-05-16T09:31:21.972Z,102483.22
2023-05-16T09:34:09.870Z,102483.22
2023-05-16T09:36:56.704Z,102478.00
2023-05-16T09:39:51.457Z,102484.03
2023-05-16T09:42:38.664Z,102475.13
2023-05-16T09:45:25.591Z,102474.81
2023-05-16T09:48:12.585Z,102475.28
2023-05-16T09:51:03.359Z,102482.78
2023-05-16T09:53:50.396Z,102484.03
2023-05-16T09:56:50.826Z,102483.47
2023-05-16T09:59:39.296Z,102488.66
2023-05-16T10:02:27.250Z,102484.31
2023-05-16T10:05:14.093Z,102487.78
2023-05-16T10:08:03.121Z,102464.66
2023-05-16T10:10:52.274Z,102471.41
2023-05-16T10:13:40.072Z,102470.97
2023-05-16T10:16:27.136Z,102467.63
2023-05-16T10:19:15.585Z,102472.28
2023-05-16T10:22:05.725Z,102468.63
2023-05-16T10:25:08.574Z,102463.13
2023-05-16T10:27:56.140Z,102475.75
2023-05-16T10:30:45.499Z,102464.47
2023-05-16T10:33:32.396Z,102466.88
2023-05-16T10:36:19.889Z,102472.78
2023-05-16T10:39:07.218Z,102467.03
2023-05-16T10:41:54.608Z,102471.13
2023-05-16T10:44:44.285Z,102469.09
2023-05-16T10:47:35.829Z,102472.50
2023-05-16T10:50:44.060Z,102464.97
2023-05-16T10:53:33.750Z,102455.50
2023-05-16T10:56:24.821Z,102467.66
2023-05-16T10:59:25.640Z,102450.28
2023-05-16T11:02:41.812Z,102451.22
2023-05-16T11:05:29.853Z,102446.22
2023-05-16T11:08:16.828Z,102462.19
2023-05-16T11:11:40.735Z,102456.44
2023-05-16T11:14:40.558Z,102464.84
2023-05-16T11:17:27.568Z,102454.84
2023-05-16T11:20:30.200Z,102453.28
2023-05-16T11:23:17.021Z,102459.00
2023-05-16T11:26:04.014Z,102453.47
2023-05-16T11:28:52.037Z,102447.09
2023-05-16T11:31:38.923Z,102453.09
2023-05-16T11:34:26.192Z,102452.72
2023-05-16T11:37:13.214Z,102453.50
2023-05-16T11:40:00.959Z,102452.94
2023-05-16T11:42:48.407Z,102456.56
2023-05-16T11:45:35.284Z,102462.97
2023-05-16T11:48:35.751Z,102451.84
2023-05-16T11:51:23.195Z,102445.47
2023-05-16T11:54:10.903Z,102447.97
2023-05-16T11:56:57.906Z,102456.06
2023-05-16T11:59:44.766Z,102443.41
2023-05-16T12:02:32.008Z,102449.16
2023-05-16T12:05:20.103Z,102445.59
2023-05-16T12:08:10.234Z,102425.22
2023-05-16T12:10:57.270Z,102437.09
2023-05-16T12:13:44.659Z,102434.31
2023-05-16T12:16:32.296Z,102428.69
2023-05-16T12:19:19.725Z,102433.53
2023-05-16T12:22:16.434Z,102411.38
2023-05-16T12:25:32.646Z,102432.13
2023-05-16T12:28:19.525Z,102422.97
2023-05-16T12:31:30.038Z,102432.94
2023-05-16T12:34:20.066Z,102426.94
2023-05-16T12:37:07.293Z,102427.13
2023-05-16T12:40:00.205Z,102420.41
2023-05-16T12:42:56.398Z,102439.81
2023-05-16T12:45:50.079Z,102426.84
2023-05-16T12:48:36.984Z,102426.72
2023-05-16T12:51:23.860Z,102439.81
2023-05-16T12:54:11.879Z,102435.59
2023-05-16T12:56:58.721Z,102437.25
2023-05-16T12:59:45.805Z,102422.94
2023-05-16T13:02:32.752Z,102438.63
2023-05-16T13:05:19.764Z,102426.19
2023-05-16T13:08:06.658Z,102430.53
2023-05-16T13:10:53.529Z,102428.00
2023-05-16T13:13:40.382Z,102423.78
2023-05-16T13:16:27.248Z,102421.22
2023-05-16T13:19:14.315Z,102424.63
2023-05-16T13:22:01.161Z,102416.63
2023-05-16T13:24:48.048Z,102422.03
2023-05-16T13:27:34.944Z,102419.63
2023-05-16T13:30:21.832Z,102416.22
2023-05-16T13:33:08.686Z,102419.63
2023-05-16T13:35:55.697Z,102413.44
2023-05-16T13:38:42.563Z,102422.25
2023-05-16T13:41:29.593Z,102429.44
2023-05-16T13:44:16.509Z,102419.91
2023-05-16T13:47:03.730Z,102420.03
2023-05-16T13:49:50.717Z,102417.38
2023-05-16T13:52:38.285Z,102417.25
2023-05-16T13:55:25.466Z,102412.75
2023-05-16T13:58:12.517Z,102409.19
2023-05-16T14:00:59.379Z,102419.91
2023-05-16T14:03:46.244Z,102418.31
2023-05-16T14:06:33.262Z,102418.44
2023-05-16T14:09:20.095Z,102423.84
2023-05-16T14:12:07.189Z,102418.69
2023-05-16T14:14:54.015Z,102422.38
2023-05-16T14:17:40.885Z,102429.59
2023-05-16T14:20:27.767Z,102428.03
2023-05-16T14:23:14.587Z,102426.47
2023-05-16T14:26:01.429Z,102424.91
2023-05-16T14:28:48.923Z,102431.22
2023-05-16T14:31:35.803Z,102427.91
2023-05-16T14:34:23.055Z,102427.13
2023-05-16T14:37:10.673Z,102441.22
2023-05-16T14:39:57.530Z,102436.88
2023-05-16T14:42:44.390Z,102442.13
2023-05-16T14:45:31.317Z,102442.13
2023-05-16T14:48:18.172Z,102441.25
2023-05-16T14:51:05.986Z,102442.13
2023-05-16T14:53:52.818Z,102443.09
2023-05-16T14:56:39.604Z,102442.28
2023-05-16T14:59:27.397Z,102443.19
2023-05-16T15:02:14.343Z,102435.19
2023-05-16T15:05:01.363Z,102441.19
2023-05-16T15:07:49.979Z,102446.22
2023-05-16T15:10:36.845Z,102448.56
2023-05-16T15:13:23.655Z,102447.38
2023-05-16T15:16:10.569Z,102443.63
2023-05-16T15:18:57.469Z,102453.72
2023-05-16T15:21:44.353Z,102445.53
2023-05-16T15:24:31.239Z,102445.81
2023-05-16T15:27:18.094Z,102446.69
2023-05-16T15:30:05.470Z,102448.63
2023-05-16T15:32:52.436Z,102447.09
2023-05-16T15:35:39.272Z,102453.63
2023-05-16T15:38:26.096Z,102458.31
2023-05-16T15:41:26.967Z,102454.16
2023-05-16T15:44:19.736Z,102449.91
2023-05-16T15:47:07.178Z,102454.94
2023-05-16T15:49:53.995Z,102460.84
2023-05-16T15:52:40.915Z,102457.22
2023-05-16T15:55:28.011Z,102462.41
2023-05-16T15:58:15.040Z,102471.16
2023-05-16T16:01:02.209Z,102471.94
2023-05-16T16:03:49.387Z,102469.41
2023-05-16T16:06:36.495Z,102462.59
2023-05-16T16:09:23.374Z,102462.91
2023-05-16T16:12:10.174Z,102462.22
2023-05-16T16:14:57.006Z,102470.13
2023-05-16T16:17:43.865Z,102463.94
2023-05-16T16:20:30.721Z,102472.59
2023-05-16T16:23:17.543Z,102476.06
2023-05-16T16:26:05.379Z,102478.25
2023-05-16T16:28:52.156Z,102476.63
2023-05-16T16:31:38.992Z,102477.63
2023-05-16T16:34:25.944Z,102475.31
2023-05-16T16:37:12.778Z,102477.47
2023-05-16T16:39:59.682Z,102483.00
2023-05-16T16:42:46.864Z,102490.63
2023-05-16T16:45:33.742Z,102488.66
2023-05-16T16:48:20.548Z,102484.72
2023-05-16T16:51:07.492Z,102479.09
2023-05-16T16:53:54.447Z,102480.41
2023-05-16T16:56:41.402Z,102485.69
2023-05-16T16:59:28.362Z,102487.78
2023-05-16T17:02:15.398Z,102490.59
2023-05-16T17:05:02.293Z,102491.97
2023-05-16T17:07:49.184Z,102488.09
2023-05-16T17:10:36.012Z,102485.91
2023-05-16T17:13:22.881Z,102479.91
2023-05-16T17:16:10.093Z,102483.75
2023-05-16T17:18:56.999Z,102486.63
2023-05-16T17:21:43.948Z,102483.13
2023-05-16T17:24:30.810Z,102487.56
2023-05-16T17:27:17.700Z,102480.88
2023-05-16T17:30:04.980Z,102491.13
2023-05-16T17:32:51.998Z,102478.28
2023-05-16T17:35:38.927Z,102487.75
2023-05-16T17:38:25.921Z,102497.94
2023-05-16T17:41:12.968Z,102499.16
2023-05-16T17:43:59.862Z,102500.31
2023-05-16T17:46:46.743Z,102500.69
2023-05-16T17:49:33.643Z,102501.03
2023-05-16T17:52:20.473Z,102513.63
2023-05-16T17:55:09.043Z,102508.63
2023-05-16T17:57:55.950Z,102512.53
2023-05-16T18:00:42.822Z,102513.69
2023-05-16T18:03:29.727Z,102512.25
2023-05-16T18:06:16.639Z,102517.72
2023-05-16T18:09:04.815Z,102516.19
2023-05-16T18:11:51.728Z,102520.69
2023-05-16T18:14:38.747Z,102514.69
2023-05-16T18:17:25.566Z,102515.69
2023-05-16T18:20:12.626Z,102527.16
2023-05-16T18:22:59.461Z,102525.53
2023-05-16T18:25:46.306Z,102527.38
2023-05-16T18:28:33.334Z,102521.31
2023-05-16T18:31:20.310Z,102518.75
2023-05-16T18:34:07.154Z,102523.16
2023-05-16T18:36:53.977Z,102523.19
2023-05-16T18:39:40.773Z,102520.63
2023-05-16T18:42:27.612Z,102513.69
2023-05-16T18:45:14.470Z,102526.81
2023-05-16T18:48:01.539Z,102529.44
2023-05-16T18:50:48.579Z,102532.97
2023-05-16T18:53:35.404Z,102533.88
2023-05-16T18:56:22.213Z,102531.25
2023-05-16T18:59:09.269Z,102532.97
2023-05-16T19:01:56.204Z,102535.59
2023-05-16T19:04:43.174Z,102541.72
2023-05-16T19:07:30.002Z,102548.69
2023-05-16T19:10:16.934Z,102551.28
2023-05-16T19:13:04.793Z,102552.13
2023-05-16T19:15:51.647Z,102555.56
2023-05-16T19:18:39.120Z,102560.78
2023-05-16T19:21:26.796Z,102557.25
2023-05-16T19:24:13.674Z,102571.13
2023-05-16T19:27:00.526Z,102564.09
2023-05-16T19:29:47.360Z,102550.91
2023-05-16T19:32:34.379Z,102564.00
2023-05-16T19:35:21.371Z,102570.00
2023-05-16T19:38:08.498Z,102569.06
2023-05-16T19:40:55.347Z,102570.72
2023-05-16T19:43:42.214Z,102572.38
2023-05-16T19:46:29.052Z,102563.53
2023-05-16T19:49:16.545Z,102574.78
2023-05-16T19:52:03.945Z,102578.16
2023-05-16T19:54:50.790Z,102575.41
2023-05-16T19:57:37.697Z,102573.53
2023-05-16T20:00:24.644Z,102575.19
2023-05-16T20:03:11.549Z,102580.25
2023-05-16T20:07:55.718Z,102585.22
2023-05-16T20:10:45.307Z,102585.97
2023-05-16T20:13:35.191Z,102580.59
2023-05-16T20:16:22.017Z,102589.16
2023-05-16T20:19:08.982Z,102596.84
2023-05-16T20:21:58.017Z,102603.69
2023-05-16T20:24:45.308Z,102609.63
2023-05-16T20:27:32.256Z,102605.13
2023-05-16T20:30:19.151Z,102605.00
2023-05-16T20:33:06.086Z,102603.13
2023-05-16T20:35:52.943Z,102611.72
2023-05-16T20:38:39.764Z,102607.22
2023-05-16T20:41:26.691Z,102608.00
2023-05-16T20:44:13.756Z,102602.69
2023-05-16T20:47:00.604Z,102614.75
2023-05-16T20:49:47.411Z,102617.25
2023-05-16T20:52:34.286Z,102618.88
2023-05-16T20:55:21.459Z,102624.91
2023-05-16T20:58:08.272Z,102625.69
2023-05-16T21:00:55.102Z,102616.09
2023-05-16T21:03:41.949Z,102628.22
2023-05-16T21:06:28.828Z,102627.28
2023-05-16T21:09:15.638Z,102627.28
2023-05-16T21:12:02.464Z,102628.09
2023-05-16T21:14:49.410Z,102625.47
2023-05-16T21:17:36.275Z,102636.75
2023-05-16T21:20:23.213Z,102641.97
2023-05-16T21:23:10.075Z,102647.16
2023-05-16T21:25:56.910Z,102644.56
2023-05-16T21:28:54.353Z,102653.22
2023-05-16T21:31:42.184Z,102654.03
2023-05-16T21:34:29.091Z,102647.97
2023-05-16T21:37:15.983Z,102655.69
2023-05-16T21:40:02.941Z,102648.69
2023-05-16T21:42:50.016Z,102652.06
2023-05-16T21:45:36.883Z,102651.13
2023-05-16T21:48:23.828Z,102648.47
2023-05-16T21:51:10.755Z,102651.84
2023-05-16T21:53:57.622Z,102657.91
2023-05-16T21:56:44.497Z,102657.00
2023-05-16T21:59:31.520Z,102655.28
2023-05-16T22:02:18.570Z,102657.91
2023-05-16T22:05:06.336Z,102664.97
2023-05-16T22:07:53.355Z,102670.25
2023-05-16T22:10:40.237Z,102672.94
2023-05-16T22:13:27.085Z,102676.50
2023-05-16T22:16:13.924Z,102674.84
2023-05-16T22:19:00.862Z,102674.97
2023-05-16T22:21:47.768Z,102676.78
2023-05-16T22:24:34.637Z,102682.91
2023-05-16T22:27:21.487Z,102690.69
2023-05-16T22:30:09.272Z,102682.91
2023-05-16T22:32:56.155Z,102682.00
2023-05-16T22:35:43.053Z,102677.69
2023-05-16T22:38:29.894Z,102681.13
2023-05-16T22:41:16.770Z,102675.94
2023-05-16T22:44:03.665Z,102682.91
2023-05-16T22:46:50.479Z,102684.66
2023-05-16T22:49:37.307Z,102683.84
2023-05-16T22:52:24.236Z,102677.81
2023-05-16T22:55:11.219Z,102683.97
2023-05-16T22:57:58.104Z,102680.53
2023-05-16T23:00:45.086Z,102677.94
2023-05-16T23:03:32.027Z,102685.00
2023-05-16T23:06:18.921Z,102678.13
2023-05-16T23:09:05.749Z,102687.72
2023-05-16T23:11:52.584Z,102685.16
2023-05-16T23:14:39.423Z,102687.00
2023-05-16T23:17:26.255Z,102679.19
2023-05-16T23:20:13.142Z,102682.75
2023-05-16T23:23:00.196Z,102677.56
2023-05-16T23:25:47.038Z,102680.22
2023-05-16T23:28:33.966Z,102684.56
2023-05-16T23:31:20.807Z,102680.28
2023-05-16T23:34:07.700Z,102679.41
2023-05-16T23:36:54.566Z,102687.22
2023-05-16T23:39:41.718Z,102682.06
2023-05-16T23:42:28.669Z,102687.31
2023-05-16T23:45:15.478Z,102686.50
2023-05-16T23:48:02.370Z,102693.47
2023-05-16T23:50:49.334Z,102676.09
2023-05-16T23:53:36.593Z,102684.75
2023-05-16T23:56:23.509Z,102686.50
2023-05-16T23:59:10.337Z,102679.53
